sensor_id;sensor_type;location;lat;lon;timestamp;pressure;altitude;pressure_sealevel;temperature;humidity
12247;BME280;6186;52.022;4.692;2023-04-28T00:01:32;101451.63;;;11.39;51.06
12247;BME280;6186;52.022;4.692;2023-04-28T00:03:57;101457.78;;;11.40;50.98
12247;BME280;6186;52.022;4.692;2023-04-28T00:06:22;101453.47;;;11.36;51.03
12247;BME280;6186;52.022;4.692;2023-04-28T00:08:48;101450.94;;;11.31;50.81
12247;BME280;6186;52.022;4.692;2023-04-28T00:11:13;101442.19;;;11.29;51.21
12247;BME280;6186;52.022;4.692;2023-04-28T00:13:38;101427.34;;;11.22;51.19
12247;BME280;6186;52.022;4.692;2023-04-28T00:16:03;101434.34;;;11.25;51.07
12247;BME280;6186;52.022;4.692;2023-04-28T00:18:29;101432.63;;;11.22;51.04
12247;BME280;6186;52.022;4.692;2023-04-28T00:20:55;101417.00;;;11.13;51.17
12247;BME280;6186;52.022;4.692;2023-04-28T00:23:20;101421.31;;;11.17;50.91
12247;BME280;6186;52.022;4.692;2023-04-28T00:25:52;101427.50;;;11.16;51.05
12247;BME280;6186;52.022;4.692;2023-04-28T00:28:17;101421.38;;;11.13;51.27
12247;BME280;6186;52.022;4.692;2023-04-28T00:30:42;101426.66;;;11.14;51.13
12247;BME280;6186;52.022;4.692;2023-04-28T00:33:08;101423.13;;;11.14;51.33
12247;BME280;6186;52.022;4.692;2023-04-28T00:35:33;101408.16;;;11.16;51.21
12247;BME280;6186;52.022;4.692;2023-04-28T00:37:58;101396.81;;;11.12;51.49
12247;BME280;6186;52.022;4.692;2023-04-28T00:40:34;101395.06;;;11.11;51.45
12247;BME280;6186;52.022;4.692;2023-04-28T00:43:00;101397.78;;;11.08;51.31
12247;BME280;6186;52.022;4.692;2023-04-28T00:45:25;101400.44;;;11.05;51.31
12247;BME280;6186;52.022;4.692;2023-04-28T00:47:50;101390.88;;;11.01;51.35
12247;BME280;6186;52.022;4.692;2023-04-28T00:50:17;101398.69;;;11.06;51.58
12247;BME280;6186;52.022;4.692;2023-04-28T00:52:42;101381.16;;;11.05;51.53
12247;BME280;6186;52.022;4.692;2023-04-28T00:55:08;101382.03;;;11.04;51.20
12247;BME280;6186;52.022;4.692;2023-04-28T00:57:34;101382.09;;;11.01;51.50
12247;BME280;6186;52.022;4.692;2023-04-28T01:00:00;101373.34;;;10.99;51.26
12247;BME280;6186;52.022;4.692;2023-04-28T01:02:25;101373.44;;;10.94;51.42
12247;BME280;6186;52.022;4.692;2023-04-28T01:04:51;101373.44;;;10.94;51.61
12247;BME280;6186;52.022;4.692;2023-04-28T01:07:17;101369.06;;;10.93;51.41
12247;BME280;6186;52.022;4.692;2023-04-28T01:09:42;101362.06;;;10.92;51.72
12247;BME280;6186;52.022;4.692;2023-04-28T01:12:08;101341.09;;;10.86;51.51
12247;BME280;6186;52.022;4.692;2023-04-28T01:14:33;101344.56;;;10.88;51.53
12247;BME280;6186;52.022;4.692;2023-04-28T01:16:59;101349.00;;;10.86;51.78
12247;BME280;6186;52.022;4.692;2023-04-28T01:19:24;101348.19;;;10.84;51.49
12247;BME280;6186;52.022;4.692;2023-04-28T01:21:50;101348.19;;;10.84;51.75
12247;BME280;6186;52.022;4.692;2023-04-28T01:24:16;101324.75;;;10.69;51.59
12247;BME280;6186;52.022;4.692;2023-04-28T01:26:41;101329.78;;;10.81;52.00
12247;BME280;6186;52.022;4.692;2023-04-28T01:29:06;101327.16;;;10.81;51.68
12247;BME280;6186;52.022;4.692;2023-04-28T01:31:31;101326.31;;;10.79;51.66
12247;BME280;6186;52.022;4.692;2023-04-28T01:33:57;101330.72;;;10.77;52.04
12247;BME280;6186;52.022;4.692;2023-04-28T01:36:23;101308.06;;;10.70;52.09
12247;BME280;6186;52.022;4.692;2023-04-28T01:38:49;101314.97;;;10.76;51.80
12247;BME280;6186;52.022;4.692;2023-04-28T01:41:14;101320.25;;;10.74;51.90
12247;BME280;6186;52.022;4.692;2023-04-28T01:43:39;101315.03;;;10.71;51.97
12247;BME280;6186;52.022;4.692;2023-04-28T01:46:04;101308.00;;;10.72;52.15
12247;BME280;6186;52.022;4.692;2023-04-28T01:48:30;101301.88;;;10.73;52.04
12247;BME280;6186;52.022;4.692;2023-04-28T01:50:55;101305.34;;;10.73;51.89
12247;BME280;6186;52.022;4.692;2023-04-28T01:53:20;101265.28;;;10.56;52.25
12247;BME280;6186;52.022;4.692;2023-04-28T01:55:45;101283.44;;;10.73;52.22
12247;BME280;6186;52.022;4.692;2023-04-28T01:58:11;101285.19;;;10.72;52.36
12247;BME280;6186;52.022;4.692;2023-04-28T02:00:36;101289.63;;;10.70;52.36
12247;BME280;6186;52.022;4.692;2023-04-28T02:03:01;101289.63;;;10.70;52.20
12247;BME280;6186;52.022;4.692;2023-04-28T02:05:26;101291.34;;;10.71;52.11
12247;BME280;6186;52.022;4.692;2023-04-28T02:07:51;101296.59;;;10.71;52.28
12247;BME280;6186;52.022;4.692;2023-04-28T02:10:17;101294.88;;;10.70;52.24
12247;BME280;6186;52.022;4.692;2023-04-28T02:12:42;101283.47;;;10.70;52.35
12247;BME280;6186;52.022;4.692;2023-04-28T02:15:08;101268.59;;;10.69;52.14
12247;BME280;6186;52.022;4.692;2023-04-28T02:17:33;101267.75;;;10.67;52.75
12247;BME280;6186;52.022;4.692;2023-04-28T02:19:58;101268.63;;;10.67;52.27
12247;BME280;6186;52.022;4.692;2023-04-28T02:22:24;101259.81;;;10.68;52.48
12247;BME280;6186;52.022;4.692;2023-04-28T02:24:49;101258.13;;;10.64;52.29
12247;BME280;6186;52.022;4.692;2023-04-28T02:27:14;101251.06;;;10.66;52.63
12247;BME280;6186;52.022;4.692;2023-04-28T02:29:40;101252.88;;;10.64;52.80
12247;BME280;6186;52.022;4.692;2023-04-28T02:32:05;101247.69;;;10.61;52.56
12247;BME280;6186;52.022;4.692;2023-04-28T02:34:30;101239.84;;;10.57;52.75
12247;BME280;6186;52.022;4.692;2023-04-28T02:36:56;101239.75;;;10.63;52.92
12247;BME280;6186;52.022;4.692;2023-04-28T02:39:21;101244.13;;;10.62;52.74
12247;BME280;6186;52.022;4.692;2023-04-28T02:41:46;101234.56;;;10.60;52.80
12247;BME280;6186;52.022;4.692;2023-04-28T02:44:11;101234.56;;;10.58;52.87
12247;BME280;6186;52.022;4.692;2023-04-28T02:46:37;101231.06;;;10.56;52.98
12247;BME280;6186;52.022;4.692;2023-04-28T02:49:02;101229.34;;;10.55;52.92
12247;BME280;6186;52.022;4.692;2023-04-28T02:51:27;101227.59;;;10.56;52.81
12247;BME280;6186;52.022;4.692;2023-04-28T02:53:52;101232.00;;;10.55;52.70
12247;BME280;6186;52.022;4.692;2023-04-28T02:56:17;101224.97;;;10.54;53.01
12247;BME280;6186;52.022;4.692;2023-04-28T02:58:43;101223.28;;;10.52;52.76
12247;BME280;6186;52.022;4.692;2023-04-28T03:01:08;101231.19;;;10.52;53.16
12247;BME280;6186;52.022;4.692;2023-04-28T03:03:33;101225.13;;;10.48;53.03
12247;BME280;6186;52.022;4.692;2023-04-28T03:05:58;101232.06;;;10.51;53.10
12247;BME280;6186;52.022;4.692;2023-04-28T03:08:24;101222.41;;;10.51;53.29
12247;BME280;6186;52.022;4.692;2023-04-28T03:10:49;101225.91;;;10.52;53.28
12247;BME280;6186;52.022;4.692;2023-04-28T03:13:14;101225.91;;;10.52;53.29
12247;BME280;6186;52.022;4.692;2023-04-28T03:15:39;101214.47;;;10.53;53.22
12247;BME280;6186;52.022;4.692;2023-04-28T03:18:04;101218.00;;;10.53;53.32
12247;BME280;6186;52.022;4.692;2023-04-28T03:20:30;101216.19;;;10.55;53.32
12247;BME280;6186;52.022;4.692;2023-04-28T03:22:55;101214.41;;;10.57;53.48
12247;BME280;6186;52.022;4.692;2023-04-28T03:25:20;101212.69;;;10.55;53.07
12247;BME280;6186;52.022;4.692;2023-04-28T03:27:45;101199.63;;;10.50;53.39
12247;BME280;6186;52.022;4.692;2023-04-28T03:30:11;101208.38;;;10.52;53.33
12247;BME280;6186;52.022;4.692;2023-04-28T03:32:36;101203.06;;;10.54;53.31
12247;BME280;6186;52.022;4.692;2023-04-28T03:35:02;101201.31;;;10.53;53.53
12247;BME280;6186;52.022;4.692;2023-04-28T03:37:27;101194.38;;;10.50;53.15
12247;BME280;6186;52.022;4.692;2023-04-28T03:39:52;101188.28;;;10.48;53.50
12247;BME280;6186;52.022;4.692;2023-04-28T03:42:17;101192.69;;;10.46;53.13
12247;BME280;6186;52.022;4.692;2023-04-28T03:44:43;101198.81;;;10.47;53.29
12247;BME280;6186;52.022;4.692;2023-04-28T03:47:08;101190.09;;;10.43;53.47
12247;BME280;6186;52.022;4.692;2023-04-28T03:49:33;101182.25;;;10.41;53.07
12247;BME280;6186;52.022;4.692;2023-04-28T03:51:58;101175.34;;;10.36;53.55
12247;BME280;6186;52.022;4.692;2023-04-28T03:54:24;101183.16;;;10.40;53.51
12247;BME280;6186;52.022;4.692;2023-04-28T03:56:49;101175.25;;;10.39;53.33
12247;BME280;6186;52.022;4.692;2023-04-28T03:59:14;101168.25;;;10.39;53.62
12247;BME280;6186;52.022;4.692;2023-04-28T04:01:39;101164.72;;;10.39;53.53
12247;BME280;6186;52.022;4.692;2023-04-28T04:04:04;101160.38;;;10.38;53.70
12247;BME280;6186;52.022;4.692;2023-04-28T04:06:30;101157.75;;;10.38;53.70
12247;BME280;6186;52.022;4.692;2023-04-28T04:08:56;101154.22;;;10.39;53.60
12247;BME280;6186;52.022;4.692;2023-04-28T04:11:21;101138.53;;;10.34;53.56
12247;BME280;6186;52.022;4.692;2023-04-28T04:13:46;101127.13;;;10.34;53.62
12247;BME280;6186;52.022;4.692;2023-04-28T04:16:11;101116.72;;;10.28;53.60
12247;BME280;6186;52.022;4.692;2023-04-28T04:18:37;101128.16;;;10.27;53.60
12247;BME280;6186;52.022;4.692;2023-04-28T04:21:02;101121.09;;;10.29;53.81
12247;BME280;6186;52.022;4.692;2023-04-28T04:23:27;101116.75;;;10.26;53.71
12247;BME280;6186;52.022;4.692;2023-04-28T04:25:53;101107.09;;;10.27;53.66
12247;BME280;6186;52.022;4.692;2023-04-28T04:28:18;101116.72;;;10.28;54.13
12247;BME280;6186;52.022;4.692;2023-04-28T04:30:43;101118.47;;;10.29;53.86
12247;BME280;6186;52.022;4.692;2023-04-28T04:33:08;101117.66;;;10.25;53.89
12247;BME280;6186;52.022;4.692;2023-04-28T04:35:33;101119.38;;;10.26;53.82
12247;BME280;6186;52.022;4.692;2023-04-28T04:37:59;101131.75;;;10.23;53.80
12247;BME280;6186;52.022;4.692;2023-04-28T04:40:24;101133.53;;;10.21;54.02
12247;BME280;6186;52.022;4.692;2023-04-28T04:42:50;101122.25;;;10.16;54.03
12247;BME280;6186;52.022;4.692;2023-04-28T04:45:15;101138.78;;;10.21;54.32
12247;BME280;6186;52.022;4.692;2023-04-28T04:47:40;101135.25;;;10.22;54.29
12247;BME280;6186;52.022;4.692;2023-04-28T04:50:06;101138.72;;;10.25;54.46
12247;BME280;6186;52.022;4.692;2023-04-28T04:52:31;101143.03;;;10.28;54.45
12247;BME280;6186;52.022;4.692;2023-04-28T04:54:57;101127.28;;;10.26;54.30
12247;BME280;6186;52.022;4.692;2023-04-28T04:57:22;101129.78;;;10.32;54.44
12247;BME280;6186;52.022;4.692;2023-04-28T04:59:47;101117.66;;;10.25;54.57
12247;BME280;6186;52.022;4.692;2023-04-28T05:02:12;101135.00;;;10.35;54.38
12247;BME280;6186;52.022;4.692;2023-04-28T05:04:38;101140.25;;;10.35;54.51
12247;BME280;6186;52.022;4.692;2023-04-28T05:07:03;101137.63;;;10.37;54.80
12247;BME280;6186;52.022;4.692;2023-04-28T05:09:28;101142.81;;;10.40;54.81
12247;BME280;6186;52.022;4.692;2023-04-28T05:11:53;101139.22;;;10.44;55.08
12247;BME280;6186;52.022;4.692;2023-04-28T05:14:19;101145.28;;;10.48;55.06
12247;BME280;6186;52.022;4.692;2023-04-28T05:16:44;101139.97;;;10.49;54.68
12247;BME280;6186;52.022;4.692;2023-04-28T05:19:09;101143.50;;;10.50;54.77
12247;BME280;6186;52.022;4.692;2023-04-28T05:21:34;101131.28;;;10.46;54.87
12247;BME280;6186;52.022;4.692;2023-04-28T05:23:59;101133.06;;;10.43;55.03
12247;BME280;6186;52.022;4.692;2023-04-28T05:26:25;101129.63;;;10.41;54.81
12247;BME280;6186;52.022;4.692;2023-04-28T05:28:50;101130.50;;;10.42;54.88
12247;BME280;6186;52.022;4.692;2023-04-28T05:31:15;101126.03;;;10.46;55.24
12247;BME280;6186;52.022;4.692;2023-04-28T05:33:40;101119.03;;;10.43;55.13
12247;BME280;6186;52.022;4.692;2023-04-28T05:36:06;101114.75;;;10.39;55.19
12247;BME280;6186;52.022;4.692;2023-04-28T05:38:31;101109.50;;;10.37;55.35
12247;BME280;6186;52.022;4.692;2023-04-28T05:40:57;101113.09;;;10.33;55.06
12247;BME280;6186;52.022;4.692;2023-04-28T05:43:22;101103.56;;;10.29;55.04
12247;BME280;6186;52.022;4.692;2023-04-28T05:45:47;101100.09;;;10.26;55.09
12247;BME280;6186;52.022;4.692;2023-04-28T05:48:12;101087.84;;;10.25;55.23
12247;BME280;6186;52.022;4.692;2023-04-28T05:50:38;101093.13;;;10.25;55.40
12247;BME280;6186;52.022;4.692;2023-04-28T05:53:03;101100.16;;;10.23;55.60
12247;BME280;6186;52.022;4.692;2023-04-28T05:55:28;101098.50;;;10.19;55.48
12247;BME280;6186;52.022;4.692;2023-04-28T05:57:53;101091.50;;;10.16;55.63
12247;BME280;6186;52.022;4.692;2023-04-28T06:00:19;101084.47;;;10.20;55.74
12247;BME280;6186;52.022;4.692;2023-04-28T06:02:44;101086.94;;;10.26;56.02
12247;BME280;6186;52.022;4.692;2023-04-28T06:05:09;101084.31;;;10.26;56.16
12247;BME280;6186;52.022;4.692;2023-04-28T06:07:34;101090.50;;;10.25;56.13
12247;BME280;6186;52.022;4.692;2023-04-28T06:10:00;101086.06;;;10.27;56.47
12247;BME280;6186;52.022;4.692;2023-04-28T06:12:25;101091.25;;;10.30;56.66
12247;BME280;6186;52.022;4.692;2023-04-28T06:14:50;101084.38;;;10.23;56.59
12247;BME280;6186;52.022;4.692;2023-04-28T06:17:15;101101.72;;;10.31;56.70
12247;BME280;6186;52.022;4.692;2023-04-28T06:19:41;101099.00;;;10.37;56.79
12247;BME280;6186;52.022;4.692;2023-04-28T06:22:06;101095.38;;;10.43;57.11
12247;BME280;6186;52.022;4.692;2023-04-28T06:24:31;101086.47;;;10.49;57.11
12247;BME280;6186;52.022;4.692;2023-04-28T06:26:56;101086.47;;;10.50;57.35
12247;BME280;6186;52.022;4.692;2023-04-28T06:29:22;101095.25;;;10.49;57.36
12247;BME280;6186;52.022;4.692;2023-04-28T06:31:47;101092.44;;;10.57;57.13
12247;BME280;6186;52.022;4.692;2023-04-28T06:34:12;101100.22;;;10.63;57.75
12247;BME280;6186;52.022;4.692;2023-04-28T06:36:37;101094.84;;;10.69;57.80
12247;BME280;6186;52.022;4.692;2023-04-28T06:39:03;101085.97;;;10.71;57.74
12247;BME280;6186;52.022;4.692;2023-04-28T06:41:28;101078.91;;;10.73;58.03
12247;BME280;6186;52.022;4.692;2023-04-28T06:43:53;101072.81;;;10.73;57.93
12247;BME280;6186;52.022;4.692;2023-04-28T06:46:19;101072.78;;;10.74;57.88
12247;BME280;6186;52.022;4.692;2023-04-28T06:48:44;101064.88;;;10.74;57.81
12247;BME280;6186;52.022;4.692;2023-04-28T06:51:09;101059.47;;;10.79;58.34
12247;BME280;6186;52.022;4.692;2023-04-28T06:53:34;101057.59;;;10.85;58.51
12247;BME280;6186;52.022;4.692;2023-04-28T06:56:00;101056.50;;;10.95;59.02
12247;BME280;6186;52.022;4.692;2023-04-28T06:58:25;101059.00;;;11.01;59.21
12247;BME280;6186;52.022;4.692;2023-04-28T07:00:50;101048.38;;;11.04;59.54
12247;BME280;6186;52.022;4.692;2023-04-28T07:03:15;101056.16;;;11.09;59.53
12247;BME280;6186;52.022;4.692;2023-04-28T07:05:40;101045.69;;;11.06;60.20
12247;BME280;6186;52.022;4.692;2023-04-28T07:08:06;101069.16;;;11.15;60.29
12247;BME280;6186;52.022;4.692;2023-04-28T07:10:31;101064.03;;;11.10;60.93
12247;BME280;6186;52.022;4.692;2023-04-28T07:12:56;101068.47;;;11.08;60.75
12247;BME280;6186;52.022;4.692;2023-04-28T07:15:22;101070.22;;;11.08;60.96
12247;BME280;6186;52.022;4.692;2023-04-28T07:17:47;101071.09;;;11.08;61.14
12247;BME280;6186;52.022;4.692;2023-04-28T07:20:13;101069.34;;;11.07;61.29
12247;BME280;6186;52.022;4.692;2023-04-28T07:22:39;101076.38;;;11.08;61.68
12247;BME280;6186;52.022;4.692;2023-04-28T07:25:04;101075.41;;;11.12;61.62
12247;BME280;6186;52.022;4.692;2023-04-28T07:27:29;101079.72;;;11.15;62.23
12247;BME280;6186;52.022;4.692;2023-04-28T07:29:54;101079.72;;;11.15;62.38
12247;BME280;6186;52.022;4.692;2023-04-28T07:32:20;101079.84;;;11.10;62.55
12247;BME280;6186;52.022;4.692;2023-04-28T07:34:46;101075.53;;;11.06;62.61
12247;BME280;6186;52.022;4.692;2023-04-28T07:37:11;101085.16;;;11.07;63.20
12247;BME280;6186;52.022;4.692;2023-04-28T07:39:36;101079.78;;;11.12;63.21
12247;BME280;6186;52.022;4.692;2023-04-28T07:42:01;101081.50;;;11.14;63.71
12247;BME280;6186;52.022;4.692;2023-04-28T07:44:27;101083.13;;;11.20;63.58
12247;BME280;6186;52.022;4.692;2023-04-28T07:46:53;101078.56;;;11.26;63.79
12247;BME280;6186;52.022;4.692;2023-04-28T07:49:18;101073.19;;;11.31;64.20
12247;BME280;6186;52.022;4.692;2023-04-28T07:51:43;101073.88;;;11.37;64.71
12247;BME280;6186;52.022;4.692;2023-04-28T07:54:09;101074.53;;;11.47;65.02
12247;BME280;6186;52.022;4.692;2023-04-28T07:56:34;101068.13;;;11.57;65.68
12247;BME280;6186;52.022;4.692;2023-04-28T07:58:59;101057.56;;;11.57;65.60
12247;BME280;6186;52.022;4.692;2023-04-28T08:01:24;101072.25;;;11.69;65.77
12247;BME280;6186;52.022;4.692;2023-04-28T08:03:50;101069.47;;;11.75;66.13
12247;BME280;6186;52.022;4.692;2023-04-28T08:06:15;101071.91;;;11.82;66.62
12247;BME280;6186;52.022;4.692;2023-04-28T08:08:40;101072.66;;;11.86;66.98
12247;BME280;6186;52.022;4.692;2023-04-28T08:11:05;101045.88;;;11.69;67.27
12247;BME280;6186;52.022;4.692;2023-04-28T08:13:31;101062.13;;;11.86;67.13
12247;BME280;6186;52.022;4.692;2023-04-28T08:15:57;101071.63;;;11.91;67.37
12247;BME280;6186;52.022;4.692;2023-04-28T08:18:22;101065.44;;;11.94;68.05
12247;BME280;6186;52.022;4.692;2023-04-28T08:20:47;101070.72;;;11.94;67.95
12247;BME280;6186;52.022;4.692;2023-04-28T08:23:12;101064.47;;;11.96;68.18
12247;BME280;6186;52.022;4.692;2023-04-28T08:25:38;101074.94;;;11.99;68.37
12247;BME280;6186;52.022;4.692;2023-04-28T08:28:03;101061.75;;;11.99;68.80
12247;BME280;6186;52.022;4.692;2023-04-28T08:30:28;101075.72;;;12.03;68.80
12247;BME280;6186;52.022;4.692;2023-04-28T08:32:54;101073.03;;;12.04;68.99
12247;BME280;6186;52.022;4.692;2023-04-28T08:35:19;101071.94;;;12.11;69.16
12247;BME280;6186;52.022;4.692;2023-04-28T08:37:44;101068.38;;;12.14;69.69
12247;BME280;6186;52.022;4.692;2023-04-28T08:40:10;101063.81;;;12.20;69.35
12247;BME280;6186;52.022;4.692;2023-04-28T08:42:36;101061.13;;;12.22;69.80
12247;BME280;6186;52.022;4.692;2023-04-28T08:45:02;101059.25;;;12.25;70.33
12247;BME280;6186;52.022;4.692;2023-04-28T08:50:01;101057.97;;;12.39;70.96
12247;BME280;6186;52.022;4.692;2023-04-28T08:52:28;101053.41;;;12.44;71.10
12247;BME280;6186;52.022;4.692;2023-04-28T08:54:55;101055.06;;;12.48;71.28
12247;BME280;6186;52.022;4.692;2023-04-28T08:57:20;101053.06;;;12.56;71.91
12247;BME280;6186;52.022;4.692;2023-04-28T08:59:46;101056.47;;;12.59;71.84
12247;BME280;6186;52.022;4.692;2023-04-28T09:02:12;101052.84;;;12.63;72.30
12247;BME280;6186;52.022;4.692;2023-04-28T09:04:37;101048.19;;;12.71;72.66
12247;BME280;6186;52.022;4.692;2023-04-28T09:07:02;101045.38;;;12.77;72.68
12247;BME280;6186;52.022;4.692;2023-04-28T09:09:29;101044.28;;;12.84;73.23
12247;BME280;6186;52.022;4.692;2023-04-28T09:11:59;101045.75;;;12.93;73.40
12247;BME280;6186;52.022;4.692;2023-04-28T09:14:26;101050.75;;;13.02;73.65
12247;BME280;6186;52.022;4.692;2023-04-28T09:16:51;101039.16;;;13.07;74.11
12247;BME280;6186;52.022;4.692;2023-04-28T09:19:17;101024.97;;;13.10;74.22
12247;BME280;6186;52.022;4.692;2023-04-28T09:21:52;101040.38;;;13.23;74.48
12247;BME280;6186;52.022;4.692;2023-04-28T09:24:34;101031.44;;;13.28;74.46
12247;BME280;6186;52.022;4.692;2023-04-28T09:27:02;101031.19;;;13.35;74.50
12247;BME280;6186;52.022;4.692;2023-04-28T09:29:29;101027.66;;;13.35;74.59
12247;BME280;6186;52.022;4.692;2023-04-28T09:32:11;101024.00;;;13.39;74.46
12247;BME280;6186;52.022;4.692;2023-04-28T09:34:44;101026.50;;;13.43;74.88
12247;BME280;6186;52.022;4.692;2023-04-28T09:37:20;101030.81;;;13.46;74.95
12247;BME280;6186;52.022;4.692;2023-04-28T09:39:47;101023.69;;;13.48;75.23
12247;BME280;6186;52.022;4.692;2023-04-28T09:44:58;101026.31;;;13.49;75.54
12247;BME280;6186;52.022;4.692;2023-04-28T09:47:23;101030.53;;;13.53;75.96
12247;BME280;6186;52.022;4.692;2023-04-28T09:49:57;101025.31;;;13.52;75.99
12247;BME280;6186;52.022;4.692;2023-04-28T09:52:23;101023.28;;;13.60;76.39
12247;BME280;6186;52.022;4.692;2023-04-28T09:54:52;101028.44;;;13.63;76.48
12247;BME280;6186;52.022;4.692;2023-04-28T09:57:18;101036.25;;;13.67;76.74
12247;BME280;6186;52.022;4.692;2023-04-28T09:59:51;101030.75;;;13.73;77.02
12247;BME280;6186;52.022;4.692;2023-04-28T10:02:19;101039.44;;;13.77;77.30
12247;BME280;6186;52.022;4.692;2023-04-28T10:04:47;101034.00;;;13.81;77.44
12247;BME280;6186;52.022;4.692;2023-04-28T10:07:14;101022.53;;;13.81;77.67
12247;BME280;6186;52.022;4.692;2023-04-28T10:09:39;101026.53;;;13.92;78.52
12247;BME280;6186;52.022;4.692;2023-04-28T10:12:05;101031.63;;;13.97;78.57
12247;BME280;6186;52.022;4.692;2023-04-28T10:14:31;101027.06;;;14.02;79.21
12247;BME280;6186;52.022;4.692;2023-04-28T10:16:58;101031.94;;;14.12;79.94
12247;BME280;6186;52.022;4.692;2023-04-28T10:19:23;101032.59;;;14.19;80.47
12247;BME280;6186;52.022;4.692;2023-04-28T10:22:01;101031.25;;;14.32;81.22
12247;BME280;6186;52.022;4.692;2023-04-28T10:24:31;101028.41;;;14.37;81.45
12247;BME280;6186;52.022;4.692;2023-04-28T10:27:06;101035.25;;;14.42;81.95
12247;BME280;6186;52.022;4.692;2023-04-28T10:29:33;101036.94;;;14.45;82.18
12247;BME280;6186;52.022;4.692;2023-04-28T10:32:18;101036.50;;;14.57;82.90
12247;BME280;6186;52.022;4.692;2023-04-28T10:34:44;101040.56;;;14.65;83.22
12247;BME280;6186;52.022;4.692;2023-04-28T10:37:09;101041.38;;;14.67;83.39
12247;BME280;6186;52.022;4.692;2023-04-28T10:39:34;101034.22;;;14.69;83.85
12247;BME280;6186;52.022;4.692;2023-04-28T10:42:00;101042.97;;;14.71;83.92
12247;BME280;6186;52.022;4.692;2023-04-28T10:46:59;101045.69;;;14.70;84.39
12247;BME280;6186;52.022;4.692;2023-04-28T10:55:28;101047.25;;;14.75;84.97
12247;BME280;6186;52.022;4.692;2023-04-28T11:00:41;101047.69;;;14.63;84.72
12247;BME280;6186;52.022;4.692;2023-04-28T11:03:06;101051.34;;;14.61;85.08
12247;BME280;6186;52.022;4.692;2023-04-28T11:05:32;101049.00;;;14.53;84.75
12247;BME280;6186;52.022;4.692;2023-04-28T11:11:14;101054.59;;;14.46;85.25
12247;BME280;6186;52.022;4.692;2023-04-28T11:13:39;101058.06;;;14.46;85.10
12247;BME280;6186;52.022;4.692;2023-04-28T11:16:05;101047.66;;;14.42;85.38
12247;BME280;6186;52.022;4.692;2023-04-28T11:18:51;101046.78;;;14.41;85.55
12247;BME280;6186;52.022;4.692;2023-04-28T11:21:20;101052.91;;;14.43;85.63
12247;BME280;6186;52.022;4.692;2023-04-28T11:23:46;101032.75;;;14.39;85.86
12247;BME280;6186;52.022;4.692;2023-04-28T11:26:11;101051.88;;;14.47;86.24
12247;BME280;6186;52.022;4.692;2023-04-28T11:28:55;101053.66;;;14.47;86.56
12247;BME280;6186;52.022;4.692;2023-04-28T11:31:23;101054.47;;;14.49;86.83
12247;BME280;6186;52.022;4.692;2023-04-28T11:34:01;101056.94;;;14.53;87.18
12247;BME280;6186;52.022;4.692;2023-04-28T11:36:37;101059.47;;;14.56;87.53
12247;BME280;6186;52.022;4.692;2023-04-28T11:39:07;101049.91;;;14.52;87.60
12247;BME280;6186;52.022;4.692;2023-04-28T11:41:38;101071.00;;;14.55;87.52
12247;BME280;6186;52.022;4.692;2023-04-28T11:44:17;101061.31;;;14.54;88.08
12247;BME280;6186;52.022;4.692;2023-04-28T11:47:04;101059.53;;;14.55;88.30
12247;BME280;6186;52.022;4.692;2023-04-28T11:49:29;101069.84;;;14.62;88.79
12247;BME280;6186;52.022;4.692;2023-04-28T11:52:05;101076.84;;;14.63;89.02
12247;BME280;6186;52.022;4.692;2023-04-28T11:54:31;101077.78;;;14.62;89.11
12247;BME280;6186;52.022;4.692;2023-04-28T11:56:57;101070.63;;;14.64;89.53
12247;BME280;6186;52.022;4.692;2023-04-28T11:59:28;101078.38;;;14.70;89.76
12247;BME280;6186;52.022;4.692;2023-04-28T12:01:55;101071.91;;;14.77;90.33
12247;BME280;6186;52.022;4.692;2023-04-28T12:04:37;101072.56;;;14.82;90.36
12247;BME280;6186;52.022;4.692;2023-04-28T12:09:36;101070.41;;;14.92;90.87
12247;BME280;6186;52.022;4.692;2023-04-28T12:12:06;101064.94;;;14.96;91.05
12247;BME280;6186;52.022;4.692;2023-04-28T12:14:55;101072.09;;;14.94;90.90
12247;BME280;6186;52.022;4.692;2023-04-28T12:17:28;101070.34;;;14.93;90.96
12247;BME280;6186;52.022;4.692;2023-04-28T12:19:55;101076.41;;;14.97;91.21
12247;BME280;6186;52.022;4.692;2023-04-28T12:22:20;101077.34;;;14.96;91.07
12247;BME280;6186;52.022;4.692;2023-04-28T12:24:46;101082.63;;;14.96;91.25
12247;BME280;6186;52.022;4.692;2023-04-28T12:27:26;101074.63;;;14.97;91.46
12247;BME280;6186;52.022;4.692;2023-04-28T12:29:51;101076.38;;;14.98;91.56
12247;BME280;6186;52.022;4.692;2023-04-28T12:32:16;101083.50;;;14.96;91.63
12247;BME280;6186;52.022;4.692;2023-04-28T12:34:44;101085.28;;;14.96;91.74
12247;BME280;6186;52.022;4.692;2023-04-28T12:37:09;101077.34;;;14.96;92.07
12247;BME280;6186;52.022;4.692;2023-04-28T12:39:35;101077.41;;;14.94;92.29
12247;BME280;6186;52.022;4.692;2023-04-28T12:42:01;101087.94;;;14.96;92.59
12247;BME280;6186;52.022;4.692;2023-04-28T12:44:31;101084.47;;;14.94;92.62
12247;BME280;6186;52.022;4.692;2023-04-28T12:46:56;101074.84;;;14.91;92.80
12247;BME280;6186;52.022;4.692;2023-04-28T12:49:21;101087.44;;;14.86;92.96
12247;BME280;6186;52.022;4.692;2023-04-28T12:51:47;101084.03;;;14.83;93.07
12247;BME280;6186;52.022;4.692;2023-04-28T12:54:12;101101.72;;;14.82;93.27
12247;BME280;6186;52.022;4.692;2023-04-28T12:56:37;101092.97;;;14.80;93.32
12247;BME280;6186;52.022;4.692;2023-04-28T12:59:02;101097.44;;;14.80;93.36
12247;BME280;6186;52.022;4.692;2023-04-28T13:01:28;101100.84;;;14.82;93.54
12247;BME280;6186;52.022;4.692;2023-04-28T13:03:53;101105.25;;;14.83;93.65
12247;BME280;6186;52.022;4.692;2023-04-28T13:06:18;101104.44;;;14.81;93.51
12247;BME280;6186;52.022;4.692;2023-04-28T13:08:43;101100.09;;;14.78;93.91
12247;BME280;6186;52.022;4.692;2023-04-28T13:11:09;101106.50;;;14.73;93.83
12247;BME280;6186;52.022;4.692;2023-04-28T13:13:34;101107.50;;;14.70;94.06
12247;BME280;6186;52.022;4.692;2023-04-28T13:15:59;101118.13;;;14.69;94.08
12247;BME280;6186;52.022;4.692;2023-04-28T13:18:24;101113.84;;;14.66;94.45